createdAt,value
2022-11-05T00:00:50.370Z,9.661479
2022-11-05T00:01:50.406Z,9.661732
2022-11-05T00:02:50.341Z,9.661504
2022-11-05T00:03:51.339Z,9.661589
2022-11-05T00:04:50.330Z,9.661828
2022-11-05T00:05:50.328Z,9.661885
2022-11-05T00:06:50.408Z,9.661661
2022-11-05T00:07:50.291Z,9.661789
2022-11-05T00:08:50.270Z,9.661858
2022-11-05T00:09:50.280Z,9.662109
2022-11-05T00:10:50.268Z,9.662031
2022-11-05T00:11:50.304Z,9.661909
2022-11-05T00:12:50.268Z,9.661786
2022-11-05T00:13:50.273Z,9.661633
2022-11-05T00:14:51.056Z,9.661559
2022-11-05T00:15:50.250Z,9.661592
2022-11-05T00:16:50.242Z,9.661130
2022-11-05T00:17:50.258Z,9.661431
2022-11-05T00:18:50.224Z,9.661510
2022-11-05T00:19:50.221Z,9.661498
2022-11-05T00:20:50.230Z,9.661570
2022-11-05T00:21:50.255Z,9.661563
2022-11-05T00:22:50.244Z,9.661622
2022-11-05T00:23:50.274Z,9.661626
2022-11-05T00:24:50.191Z,9.661652
2022-11-05T00:25:50.170Z,9.661685
2022-11-05T00:26:50.183Z,9.661637
2022-11-05T00:27:50.172Z,9.661548
2022-11-05T00:28:50.401Z,9.661518
2022-11-05T00:29:50.153Z,9.661576
2022-11-05T00:30:50.136Z,9.661491
2022-11-05T00:31:50.130Z,9.661526
2022-11-05T00:32:50.157Z,9.661583
2022-11-05T00:33:50.181Z,9.661609
2022-11-05T00:34:50.127Z,9.661554
2022-11-05T00:35:50.138Z,9.661510
2022-11-05T00:36:50.098Z,9.661520
2022-11-05T00:37:50.797Z,9.661509
2022-11-05T00:38:51.111Z,9.661525
2022-11-05T00:39:50.142Z,9.661580
2022-11-05T00:40:50.093Z,9.661623
2022-11-05T00:41:50.110Z,9.661601
2022-11-05T00:42:50.065Z,9.661516
2022-11-05T00:43:50.075Z,9.661653
2022-11-05T00:44:50.182Z,9.661521
2022-11-05T00:45:50.085Z,9.661586
2022-11-05T00:46:50.047Z,9.661487
2022-11-05T00:47:50.061Z,9.661557
2022-11-05T00:48:50.036Z,9.661439
2022-11-05T00:49:50.043Z,9.661551
2022-11-05T00:50:50.026Z,9.661575
2022-11-05T00:51:50.631Z,9.661411
2022-11-05T00:52:50.010Z,9.661464
2022-11-05T00:53:50.008Z,9.661413
2022-11-05T00:54:50.011Z,9.661435
2022-11-05T00:55:50.111Z,9.661457
2022-11-05T00:56:49.985Z,9.661543
2022-11-05T00:57:49.988Z,9.661550
2022-11-05T00:58:49.959Z,9.661539
2022-11-05T00:59:49.958Z,9.661541
2022-11-05T01:00:50.003Z,9.661537
2022-11-05T01:01:50.047Z,9.661520
2022-11-05T01:02:50.091Z,9.661633
2022-11-05T01:03:51.834Z,9.661586
2022-11-05T01:04:50.908Z,9.661516
2022-11-05T01:05:49.933Z,9.661626
2022-11-05T01:06:50.040Z,9.661533
2022-11-05T01:07:49.909Z,9.661520
2022-11-05T01:08:49.916Z,9.661529
2022-11-05T01:09:49.908Z,9.661582
2022-11-05T01:10:49.883Z,9.661619
2022-11-05T01:11:51.003Z,9.661635
2022-11-05T01:12:49.881Z,9.661567
2022-11-05T01:13:49.861Z,9.661563
2022-11-05T01:14:49.883Z,9.661620
2022-11-05T01:15:49.864Z,9.661632
2022-11-05T01:16:49.870Z,9.661631
2022-11-05T01:17:49.891Z,9.661752
2022-11-05T01:18:49.838Z,9.661670
2022-11-05T01:19:49.840Z,9.661616
2022-11-05T01:20:49.832Z,9.661665
2022-11-05T01:21:49.830Z,9.661643
2022-11-05T01:22:49.934Z,9.661601
2022-11-05T01:23:49.802Z,9.661821
2022-11-05T01:24:49.805Z,9.661727
2022-11-05T01:25:49.844Z,9.661693
2022-11-05T01:26:49.800Z,9.661554
2022-11-05T01:27:49.790Z,9.661501
2022-11-05T01:28:49.897Z,9.661724
2022-11-05T01:29:49.772Z,9.661539
2022-11-05T01:30:49.805Z,9.661614
2022-11-05T01:31:49.757Z,9.661592
2022-11-05T01:32:49.760Z,9.661739
2022-11-05T01:33:49.871Z,9.661819
2022-11-05T01:34:49.776Z,9.661721
2022-11-05T01:35:49.734Z,9.661759
2022-11-05T01:36:49.768Z,9.661757
2022-11-05T01:37:49.728Z,9.661549
2022-11-05T01:38:49.740Z,9.661779
2022-11-05T01:39:49.737Z,9.661745
2022-11-05T01:40:49.772Z,9.661579
2022-11-05T01:41:49.743Z,9.661566
2022-11-05T01:42:49.716Z,9.661640
2022-11-05T01:43:49.685Z,9.661699
2022-11-05T01:44:49.793Z,9.661652
2022-11-05T01:45:49.673Z,9.661655
2022-11-05T01:46:49.701Z,9.661622
2022-11-05T01:47:49.650Z,9.661496
2022-11-05T01:48:49.659Z,9.662030
2022-11-05T01:49:49.642Z,9.661802
2022-11-05T01:50:49.661Z,9.661672
2022-11-05T01:51:49.641Z,9.661696
2022-11-05T01:52:49.644Z,9.661592
2022-11-05T01:53:49.619Z,9.661618
2022-11-05T01:54:49.631Z,9.661655
2022-11-05T01:55:49.724Z,9.661637
2022-11-05T01:56:49.625Z,9.661613
2022-11-05T01:57:49.616Z,9.661597
2022-11-05T01:58:49.586Z,9.661617
2022-11-05T01:59:49.596Z,9.661638
2022-11-05T02:00:49.577Z,9.661650
2022-11-05T02:01:49.712Z,9.661871
2022-11-05T02:02:49.783Z,9.661740
2022-11-05T02:03:49.547Z,9.661755
2022-11-05T02:04:50.547Z,9.661873
2022-11-05T02:05:49.544Z,9.661674
2022-11-05T02:06:49.654Z,9.661738
2022-11-05T02:07:49.633Z,9.661740
2022-11-05T02:08:49.516Z,9.661629
2022-11-05T02:09:49.525Z,9.661780
2022-11-05T02:10:49.529Z,9.662011
2022-11-05T02:11:49.519Z,9.661839
2022-11-05T02:12:49.519Z,9.661473
2022-11-05T02:13:49.491Z,9.661233
2022-11-05T02:14:49.500Z,9.661748
2022-11-05T02:15:49.469Z,9.661433
2022-11-05T02:16:49.456Z,9.661624
2022-11-05T02:17:50.273Z,9.661691
2022-11-05T02:18:49.478Z,9.661559
2022-11-05T02:19:49.470Z,9.661530
2022-11-05T02:20:52.222Z,9.661437
2022-11-05T02:21:49.444Z,9.661592
2022-11-05T02:22:49.432Z,9.661663
2022-11-05T02:23:49.602Z,9.661722
2022-11-05T02:24:49.422Z,9.661967
2022-11-05T02:25:49.411Z,9.661852
2022-11-05T02:26:49.403Z,9.661658
2022-11-05T02:27:49.405Z,9.661444
2022-11-05T02:28:50.422Z,9.661405
2022-11-05T02:29:49.382Z,9.661252
2022-11-05T02:30:49.395Z,9.661289
2022-11-05T02:31:49.391Z,9.661389
2022-11-05T02:32:49.364Z,9.661475
2022-11-05T02:33:49.378Z,9.661825
2022-11-05T02:34:49.366Z,9.661869
2022-11-05T02:35:49.364Z,9.661444
2022-11-05T02:36:49.351Z,9.661532
2022-11-05T02:37:49.351Z,9.661540
2022-11-05T02:38:49.368Z,9.661582
2022-11-05T02:39:49.349Z,9.661851
2022-11-05T02:40:49.348Z,9.661682
2022-11-05T02:41:49.311Z,9.662051
2022-11-05T02:42:49.304Z,9.662056
2022-11-05T02:43:49.313Z,9.661838
2022-11-05T02:44:49.372Z,9.661742
2022-11-05T02:45:49.299Z,9.661802
2022-11-05T02:46:49.302Z,9.662184
2022-11-05T02:47:49.290Z,9.662572
2022-11-05T02:48:49.293Z,9.661933
2022-11-05T02:49:49.295Z,9.661673
2022-11-05T02:50:49.266Z,9.661581
2022-11-05T02:51:49.288Z,9.661391
2022-11-05T02:52:49.320Z,9.661623
2022-11-05T02:53:49.282Z,9.661728
2022-11-05T02:54:49.254Z,9.661745
2022-11-05T02:55:49.228Z,9.661738
2022-11-05T02:56:49.229Z,9.661543
2022-11-05T02:57:49.235Z,9.661517
2022-11-05T02:58:49.317Z,9.661540
2022-11-05T02:59:49.297Z,9.661487
2022-11-05T03:00:49.205Z,9.661589
2022-11-05T03:01:49.359Z,9.661603
2022-11-05T03:02:49.353Z,9.661533
2022-11-05T03:03:49.288Z,9.661506
2022-11-05T03:04:49.194Z,9.661503
2022-11-05T03:05:49.171Z,9.661621
2022-11-05T03:06:49.170Z,9.661581
2022-11-05T03:07:49.177Z,9.661482
2022-11-05T03:08:49.187Z,9.661724
2022-11-05T03:09:49.158Z,9.661716
2022-11-05T03:10:49.135Z,9.661668
2022-11-05T03:11:49.130Z,9.661508
2022-11-05T03:12:49.130Z,9.661484
2022-11-05T03:13:49.110Z,9.661528
2022-11-05T03:14:49.163Z,9.661553
2022-11-05T03:15:49.125Z,9.661564
2022-11-05T03:16:49.106Z,9.661538
2022-11-05T03:17:49.112Z,9.661602
2022-11-05T03:18:49.101Z,9.661597
2022-11-05T03:19:49.144Z,9.661586
2022-11-05T03:20:49.082Z,9.661542
2022-11-05T03:21:49.123Z,9.661490
2022-11-05T03:22:49.591Z,9.661521
2022-11-05T03:23:49.078Z,9.661442
2022-11-05T03:24:49.044Z,9.661395
2022-11-05T03:25:49.153Z,9.661415
2022-11-05T03:26:49.054Z,9.661381
2022-11-05T03:27:49.036Z,9.661530
2022-11-05T03:28:49.033Z,9.661547
2022-11-05T03:29:49.028Z,9.661567
2022-11-05T03:30:49.047Z,9.661565
2022-11-05T03:31:49.023Z,9.661534
2022-11-05T03:32:49.009Z,9.661590
2022-11-05T03:33:49.015Z,9.661393
2022-11-05T03:34:48.998Z,9.661395
2022-11-05T03:35:48.982Z,9.661462
2022-11-05T03:36:49.009Z,9.661635
2022-11-05T03:37:48.984Z,9.661489
2022-11-05T03:38:48.976Z,9.661507
2022-11-05T03:39:48.964Z,9.661610
2022-11-05T03:40:48.963Z,9.661540
2022-11-05T03:41:48.992Z,9.661729
2022-11-05T03:42:48.949Z,9.661844
2022-11-05T03:43:48.932Z,9.661997
2022-11-05T03:44:48.954Z,9.661920
2022-11-05T03:45:48.923Z,9.661452
2022-11-05T03:46:48.925Z,9.661279
2022-11-05T03:47:48.929Z,9.661716
2022-11-05T03:48:48.929Z,9.661798
2022-11-05T03:49:48.920Z,9.661534
2022-11-05T03:50:48.909Z,9.661395
2022-11-05T03:51:48.881Z,9.661541
2022-11-05T03:52:48.917Z,9.661482
2022-11-05T03:53:48.879Z,9.661714
2022-11-05T03:54:48.874Z,9.661659
2022-11-05T03:55:48.892Z,9.661620
2022-11-05T03:56:48.855Z,9.661572
2022-11-05T03:57:48.860Z,9.661458
2022-11-05T03:58:48.964Z,9.661516
2022-11-05T03:59:48.842Z,9.661440
2022-11-05T04:00:48.825Z,9.661525
2022-11-05T04:01:48.945Z,9.661638
2022-11-05T04:02:48.950Z,9.661605
2022-11-05T04:03:48.863Z,9.661690
2022-11-05T04:04:48.817Z,9.661628
2022-11-05T04:05:48.801Z,9.661613
2022-11-05T04:06:48.795Z,9.661505
2022-11-05T04:07:48.767Z,9.661512
2022-11-05T04:08:48.774Z,9.661526
2022-11-05T04:09:48.797Z,9.661554
2022-11-05T04:10:48.781Z,9.661587
2022-11-05T04:11:48.787Z,9.661637
2022-11-05T04:12:48.764Z,9.661637
2022-11-05T04:13:48.768Z,9.661572
2022-11-05T04:14:48.768Z,9.661545
2022-11-05T04:15:48.735Z,9.661553
2022-11-05T04:16:48.716Z,9.661552
2022-11-05T04:17:48.728Z,9.661497
2022-11-05T04:18:48.733Z,9.661516
2022-11-05T04:19:48.732Z,9.661424
2022-11-05T04:20:48.739Z,9.661427
2022-11-05T04:21:48.703Z,9.661498
2022-11-05T04:22:48.693Z,9.661581
2022-11-05T04:23:48.668Z,9.661553
2022-11-05T04:24:48.667Z,9.661572
2022-11-05T04:25:48.772Z,9.661533
2022-11-05T04:26:48.655Z,9.661567
2022-11-05T04:27:48.670Z,9.661534
2022-11-05T04:28:48.630Z,9.661554
2022-11-05T04:29:48.654Z,9.661537
2022-11-05T04:30:48.635Z,9.661554
2022-11-05T04:31:48.652Z,9.661641
2022-11-05T04:32:48.621Z,9.661568
2022-11-05T04:33:48.672Z,9.661564
2022-11-05T04:34:48.620Z,9.661627
2022-11-05T04:35:48.594Z,9.661472
2022-11-05T04:36:48.719Z,9.661412
2022-11-05T04:37:48.600Z,9.661535
2022-11-05T04:38:48.595Z,9.661491
2022-11-05T04:39:48.570Z,9.661648
2022-11-05T04:40:48.569Z,9.661529
2022-11-05T04:41:48.581Z,9.661696
2022-11-05T04:42:48.652Z,9.661457
2022-11-05T04:43:48.545Z,9.661530
2022-11-05T04:44:48.548Z,9.661483
2022-11-05T04:45:48.546Z,9.661434
2022-11-05T04:46:48.532Z,9.661546
2022-11-05T04:47:48.557Z,9.661543
2022-11-05T04:48:48.519Z,9.661644
2022-11-05T04:49:48.525Z,9.661489
2022-11-05T04:50:48.535Z,9.661555
2022-11-05T04:51:48.504Z,9.661417
2022-11-05T04:52:48.512Z,9.661437
2022-11-05T04:53:48.554Z,9.661483
2022-11-05T04:54:48.496Z,9.661449
2022-11-05T04:55:48.482Z,9.661430
2022-11-05T04:56:48.479Z,9.661480
2022-11-05T04:57:48.464Z,9.661413
2022-11-05T04:58:48.495Z,9.661345
2022-11-05T04:59:48.465Z,9.661358
2022-11-05T05:00:48.477Z,9.661241
2022-11-05T05:01:48.530Z,9.661373
2022-11-05T05:02:48.434Z,9.661515
2022-11-05T05:03:48.457Z,9.661533
2022-11-05T05:04:48.555Z,9.661498
2022-11-05T05:05:48.410Z,9.661577
2022-11-05T05:06:48.423Z,9.661510
2022-11-05T05:07:48.410Z,9.661655
2022-11-05T05:08:48.391Z,9.661634
2022-11-05T05:09:48.432Z,9.661710
2022-11-05T05:10:48.398Z,9.661697
2022-11-05T05:11:48.386Z,9.661552
2022-11-05T05:12:48.376Z,9.661465
2022-11-05T05:13:48.401Z,9.661281
2022-11-05T05:14:48.395Z,9.661328
2022-11-05T05:15:48.450Z,9.661382
2022-11-05T05:16:49.363Z,9.661490
2022-11-05T05:17:48.342Z,9.661674
2022-11-05T05:18:48.435Z,9.661496
2022-11-05T05:19:48.376Z,9.661528
2022-11-05T05:20:48.352Z,9.661697
2022-11-05T05:21:48.331Z,9.661718
2022-11-05T05:22:48.328Z,9.661610
2022-11-05T05:23:48.337Z,9.661586
2022-11-05T05:24:52.521Z,9.661585
2022-11-05T05:25:49.340Z,9.661613
2022-11-05T05:26:48.301Z,9.661594
2022-11-05T05:27:48.290Z,9.661639
2022-11-05T05:28:48.343Z,9.661613
2022-11-05T05:29:48.289Z,9.661663
2022-11-05T05:30:48.246Z,9.661700
2022-11-05T05:31:48.271Z,9.661619
2022-11-05T05:32:48.235Z,9.661493
2022-11-05T05:33:48.275Z,9.661557
2022-11-05T05:34:48.234Z,9.661590
2022-11-05T05:35:48.768Z,9.661530
2022-11-05T05:36:48.335Z,9.661652
2022-11-05T05:37:48.223Z,9.661481
2022-11-05T05:38:48.219Z,9.661578
2022-11-05T05:39:48.198Z,9.661679
2022-11-05T05:40:48.194Z,9.661678
2022-11-05T05:41:48.204Z,9.661666
2022-11-05T05:42:48.203Z,9.661574
2022-11-05T05:43:48.203Z,9.661875
2022-11-05T05:44:48.177Z,9.661920
2022-11-05T05:45:48.184Z,9.661736
2022-11-05T05:46:48.198Z,9.661512
2022-11-05T05:47:48.874Z,9.661659
2022-11-05T05:48:48.143Z,9.661661
2022-11-05T05:49:48.142Z,9.661713
2022-11-05T05:50:48.128Z,9.661569
2022-11-05T05:51:48.121Z,9.661718
2022-11-05T05:52:48.141Z,9.661680
2022-11-05T05:53:48.267Z,9.661727
2022-11-05T05:54:48.139Z,9.661767
2022-11-05T05:55:48.101Z,9.661866
2022-11-05T05:56:48.101Z,9.661621
2022-11-05T05:57:48.090Z,9.661597
2022-11-05T05:58:48.187Z,9.661495
2022-11-05T05:59:48.070Z,9.661616
2022-11-05T06:00:48.066Z,9.661621
2022-11-05T06:01:48.151Z,9.661490
2022-11-05T06:02:48.730Z,9.661400
2022-11-05T06:03:48.068Z,9.661227
2022-11-05T06:04:48.170Z,9.661427
2022-11-05T06:05:48.075Z,9.661542
2022-11-05T06:06:48.048Z,9.661577
2022-11-05T06:07:48.016Z,9.661450
2022-11-05T06:08:48.015Z,9.661487
2022-11-05T06:09:48.039Z,9.661491
2022-11-05T06:10:48.051Z,9.661527
2022-11-05T06:11:48.007Z,9.661519
2022-11-05T06:12:47.988Z,9.661557
2022-11-05T06:13:47.997Z,9.661608
2022-11-05T06:14:48.014Z,9.661667
2022-11-05T06:15:48.856Z,9.661694
2022-11-05T06:16:47.996Z,9.661500
2022-11-05T06:17:47.973Z,9.661510
2022-11-05T06:18:47.967Z,9.661523
2022-11-05T06:19:47.953Z,9.661545
2022-11-05T06:20:47.952Z,9.661622
2022-11-05T06:21:48.954Z,9.661572
2022-11-05T06:22:47.963Z,9.661564
2022-11-05T06:23:47.920Z,9.661567
2022-11-05T06:24:47.929Z,9.661555
2022-11-05T06:25:47.923Z,9.661612
2022-11-05T06:26:47.972Z,9.661684
2022-11-05T06:27:47.950Z,9.661592
2022-11-05T06:28:47.903Z,9.661448
2022-11-05T06:29:47.911Z,9.661584
2022-11-05T06:30:47.893Z,9.661639
2022-11-05T06:31:48.013Z,9.661433
2022-11-05T06:32:47.927Z,9.661519
2022-11-05T06:33:47.903Z,9.661530
2022-11-05T06:34:47.864Z,9.661583
2022-11-05T06:35:47.875Z,9.661608
2022-11-05T06:36:47.861Z,9.661516
2022-11-05T06:37:47.883Z,9.661538
2022-11-05T06:38:47.847Z,9.661775
2022-11-05T06:39:47.828Z,9.661816
2022-11-05T06:40:47.848Z,9.661696
2022-11-05T06:42:16.455Z,9.661555
2022-11-05T06:42:48.845Z,9.661804
2022-11-05T06:43:47.811Z,9.661767
2022-11-05T06:44:47.830Z,9.661691
2022-11-05T06:45:47.798Z,9.661603
2022-11-05T06:46:48.869Z,9.661443
2022-11-05T06:47:48.784Z,9.661629
2022-11-05T06:48:48.819Z,9.661804
2022-11-05T06:49:47.784Z,9.661796
2022-11-05T06:50:47.778Z,9.661815
2022-11-05T06:51:47.750Z,9.661816
2022-11-05T06:52:47.762Z,9.661573
2022-11-05T06:53:47.778Z,9.661744
2022-11-05T06:54:47.768Z,9.661616
2022-11-05T06:55:47.752Z,9.661619
2022-11-05T06:56:47.731Z,9.661641
2022-11-05T06:57:47.741Z,9.661487
2022-11-05T06:58:47.754Z,9.661543
2022-11-05T06:59:47.737Z,9.661502
2022-11-05T07:00:47.767Z,9.661390
2022-11-05T07:01:47.832Z,9.661357
2022-11-05T07:02:47.693Z,9.661431
2022-11-05T07:03:47.813Z,9.661478
2022-11-05T07:04:47.717Z,9.661423
2022-11-05T07:05:47.685Z,9.661526
2022-11-05T07:06:47.676Z,9.661551
2022-11-05T07:07:47.663Z,9.661511
2022-11-05T07:08:47.686Z,9.661460
2022-11-05T07:09:47.700Z,9.661437
2022-11-05T07:10:47.643Z,9.661561
2022-11-05T07:11:47.644Z,9.661490
2022-11-05T07:12:47.657Z,9.661453
2022-11-05T07:13:47.653Z,9.661500
2022-11-05T07:14:47.626Z,9.661477
2022-11-05T07:15:47.628Z,9.661504
2022-11-05T07:16:47.627Z,9.661519
2022-11-05T07:17:47.608Z,9.661545
2022-11-05T07:18:47.626Z,9.661481
2022-11-05T07:19:47.628Z,9.661462
2022-11-05T07:20:47.605Z,9.661425
2022-11-05T07:21:47.589Z,9.661542
2022-11-05T07:22:47.568Z,9.661529
2022-11-05T07:23:47.608Z,9.661547
2022-11-05T07:24:47.591Z,9.661528
2022-11-05T07:25:47.576Z,9.661551
2022-11-05T07:26:47.547Z,9.661576
2022-11-05T07:27:47.558Z,9.661508
2022-11-05T07:28:47.561Z,9.661496
2022-11-05T07:29:47.557Z,9.661555
2022-11-05T07:30:47.532Z,9.661511
2022-11-05T07:31:47.521Z,9.661488
2022-11-05T07:32:47.517Z,9.661624
2022-11-05T07:33:47.523Z,9.661721
2022-11-05T07:34:47.515Z,9.661588
2022-11-05T07:35:47.511Z,9.661536
2022-11-05T07:36:47.521Z,9.661591
2022-11-05T07:37:47.499Z,9.661510
2022-11-05T07:38:47.537Z,9.661592
2022-11-05T07:39:47.506Z,9.661529
2022-11-05T07:40:47.479Z,9.661488
2022-11-05T07:41:47.478Z,9.661452
2022-11-05T07:42:47.471Z,9.661514
2022-11-05T07:43:47.468Z,9.661539
2022-11-05T07:44:47.525Z,9.661503
2022-11-05T07:45:47.462Z,9.661545
2022-11-05T07:46:47.432Z,9.661536
2022-11-05T07:47:47.442Z,9.661521
2022-11-05T07:48:47.451Z,9.661476
2022-11-05T07:49:47.436Z,9.661521
2022-11-05T07:50:47.427Z,9.661510
2022-11-05T07:51:47.404Z,9.661459
2022-11-05T07:52:47.448Z,9.661527
2022-11-05T07:53:47.411Z,9.661493
2022-11-05T07:54:47.438Z,9.661517
2022-11-05T07:55:47.375Z,9.661356
2022-11-05T07:56:47.373Z,9.661367
2022-11-05T07:57:47.361Z,9.661220
2022-11-05T07:58:47.402Z,9.661575
2022-11-05T07:59:47.383Z,9.661471
2022-11-05T08:00:47.467Z,9.661489
2022-11-05T08:01:47.513Z,9.661576
2022-11-05T08:02:47.617Z,9.661565
2022-11-05T08:03:47.859Z,9.661494
2022-11-05T08:04:47.370Z,9.661617
2022-11-05T08:05:47.325Z,9.661821
2022-11-05T08:06:47.293Z,9.661552
2022-11-05T08:07:47.299Z,9.661622
2022-11-05T08:08:47.318Z,9.661606
2022-11-05T08:09:47.314Z,9.661742
2022-11-05T08:10:47.282Z,9.661609
2022-11-05T08:11:47.304Z,9.661449
2022-11-05T08:12:47.282Z,9.661453
2022-11-05T08:13:47.278Z,9.661495
2022-11-05T08:14:47.275Z,9.661543
2022-11-05T08:15:47.255Z,9.661515
2022-11-05T08:16:47.283Z,9.661427
2022-11-05T08:17:47.255Z,9.661712
2022-11-05T08:18:47.265Z,9.661697
2022-11-05T08:19:47.334Z,9.661603
2022-11-05T08:20:47.248Z,9.661690
2022-11-05T08:21:47.227Z,9.661505
2022-11-05T08:22:47.218Z,9.661411
2022-11-05T08:23:47.228Z,9.661577
2022-11-05T08:24:47.285Z,9.661704
2022-11-05T08:25:47.207Z,9.661630
2022-11-05T08:26:47.213Z,9.661668
2022-11-05T08:27:47.199Z,9.661571
2022-11-05T08:28:47.201Z,9.661721
2022-11-05T08:29:47.340Z,9.661748
2022-11-05T08:30:47.196Z,9.661608
2022-11-05T08:31:47.162Z,9.661687
2022-11-05T08:32:48.192Z,9.661564
2022-11-05T08:33:47.185Z,9.661489
2022-11-05T08:34:47.189Z,9.661511
2022-11-05T08:35:47.212Z,9.661347
2022-11-05T08:36:47.144Z,9.661525
2022-11-05T08:37:47.235Z,9.661508
2022-11-05T08:38:47.174Z,9.661205
2022-11-05T08:39:47.162Z,9.661229
2022-11-05T08:40:47.134Z,9.661373
2022-11-05T08:41:47.156Z,9.661399
2022-11-05T08:42:47.102Z,9.661593
2022-11-05T08:43:47.115Z,9.661563
2022-11-05T08:44:47.102Z,9.661607
2022-11-05T08:45:47.208Z,9.661758
2022-11-05T08:46:47.092Z,9.661700
2022-11-05T08:47:47.075Z,9.661652
2022-11-05T08:48:47.108Z,9.661672
2022-11-05T08:49:47.062Z,9.661386
2022-11-05T08:50:47.084Z,9.661675
2022-11-05T08:51:47.073Z,9.661625
2022-11-05T08:52:47.057Z,9.661518
2022-11-05T08:53:47.060Z,9.661526
2022-11-05T08:54:47.057Z,9.661560
2022-11-05T08:55:47.047Z,9.661694
2022-11-05T08:56:47.152Z,9.661706
2022-11-05T08:57:47.011Z,9.661491
2022-11-05T08:58:47.018Z,9.661299
2022-11-05T08:59:47.031Z,9.661381
2022-11-05T09:00:47.061Z,9.661290
2022-11-05T09:01:47.294Z,9.661501
2022-11-05T09:02:46.992Z,9.661514
2022-11-05T09:03:46.995Z,9.661344
2022-11-05T09:04:46.991Z,9.661679
2022-11-05T09:05:46.985Z,9.661399
2022-11-05T09:06:46.980Z,9.660987
2022-11-05T09:07:46.990Z,9.661057
2022-11-05T09:08:47.021Z,9.661027
2022-11-05T09:09:46.936Z,9.660953
2022-11-05T09:10:46.951Z,9.660999
2022-11-05T09:12:10.690Z,9.661078
2022-11-05T09:12:48.983Z,9.661248
2022-11-05T09:13:46.936Z,9.661251
2022-11-05T09:14:46.946Z,9.661382
2022-11-05T09:15:46.930Z,9.661471
2022-11-05T09:16:46.923Z,9.661467
2022-11-05T09:17:46.930Z,9.661473
2022-11-05T09:18:46.928Z,9.661456
2022-11-05T09:19:46.940Z,9.661431
2022-11-05T09:20:46.911Z,9.661419
2022-11-05T09:21:46.887Z,9.661356
2022-11-05T09:22:46.887Z,9.661333
2022-11-05T09:23:46.896Z,9.661427
2022-11-05T09:24:46.860Z,9.661393
2022-11-05T09:25:46.892Z,9.661366
2022-11-05T09:26:46.844Z,9.661363
2022-11-05T09:27:46.903Z,9.661538
2022-11-05T09:28:46.904Z,9.661497
2022-11-05T09:29:46.839Z,9.661417
2022-11-05T09:30:46.866Z,9.661402
2022-11-05T09:31:46.883Z,9.661395
2022-11-05T09:32:46.843Z,9.661421
2022-11-05T09:33:46.871Z,9.661341
2022-11-05T09:34:46.854Z,9.661357
2022-11-05T09:35:46.836Z,9.661463
2022-11-05T09:36:46.817Z,9.661544
2022-11-05T09:37:46.818Z,9.661663
2022-11-05T09:38:46.885Z,9.661831
2022-11-05T09:39:46.814Z,9.661749
2022-11-05T09:40:46.834Z,9.661756
2022-11-05T09:41:46.780Z,9.661892
2022-11-05T09:42:46.842Z,9.661819
2022-11-05T09:43:46.882Z,9.661793
2022-11-05T09:44:47.751Z,9.661853
2022-11-05T09:45:46.767Z,9.661830
2022-11-05T09:46:46.727Z,9.661739
2022-11-05T09:47:46.800Z,9.661662
2022-11-05T09:48:46.753Z,9.661601
2022-11-05T09:49:46.741Z,9.661545
2022-11-05T09:50:46.733Z,9.661547
2022-11-05T09:51:46.778Z,9.661561
2022-11-05T09:52:46.751Z,9.661582
2022-11-05T09:53:46.719Z,9.661590
2022-11-05T09:54:46.693Z,9.661672
2022-11-05T09:55:46.707Z,9.661551
2022-11-05T09:56:46.694Z,9.661487
2022-11-05T09:57:46.706Z,9.661520
2022-11-05T09:58:46.763Z,9.661451
2022-11-05T09:59:46.768Z,9.661482
2022-11-05T10:00:46.763Z,9.661509
2022-11-05T10:01:46.768Z,9.661530
2022-11-05T10:02:46.686Z,9.661411
2022-11-05T10:03:46.684Z,9.661456
2022-11-05T10:04:46.710Z,9.661496
2022-11-05T10:05:46.719Z,9.661499
2022-11-05T10:06:46.654Z,9.661532
2022-11-05T10:07:46.641Z,9.661491
2022-11-05T10:08:46.674Z,9.661490
2022-11-05T10:09:46.643Z,9.661470
2022-11-05T10:10:46.633Z,9.661448
2022-11-05T10:11:46.616Z,9.661468
2022-11-05T10:12:46.622Z,9.661427
2022-11-05T10:13:46.623Z,9.661556
2022-11-05T10:14:46.601Z,9.661532
2022-11-05T10:15:46.587Z,9.661504
2022-11-05T10:16:46.613Z,9.661466
2022-11-05T10:17:46.651Z,9.661479
2022-11-05T10:18:46.614Z,9.661421
2022-11-05T10:19:46.575Z,9.661448
2022-11-05T10:20:46.585Z,9.661549
2022-11-05T10:22:49.758Z,9.661350
2022-11-05T10:23:46.557Z,9.661311
2022-11-05T10:24:46.604Z,9.661509
2022-11-05T10:25:46.539Z,9.661466
2022-11-05T10:26:46.568Z,9.661502
2022-11-05T10:27:46.560Z,9.661338
2022-11-05T10:28:47.563Z,9.661450
2022-11-05T10:29:46.563Z,9.661485
2022-11-05T10:30:46.567Z,9.661459
2022-11-05T10:31:46.566Z,9.661445
2022-11-05T10:32:46.548Z,9.661480
2022-11-05T10:33:46.546Z,9.661482
2022-11-05T10:34:46.533Z,9.661505
2022-11-05T10:35:46.503Z,9.661511
2022-11-05T10:36:46.505Z,9.661569
2022-11-05T10:37:46.488Z,9.661560
2022-11-05T10:38:46.503Z,9.661584
2022-11-05T10:39:46.501Z,9.661548
2022-11-05T10:40:46.477Z,9.661492
2022-11-05T10:41:46.475Z,9.661496
2022-11-05T10:42:46.461Z,9.661500
2022-11-05T10:43:46.805Z,9.661526
2022-11-05T10:44:46.466Z,9.661488
2022-11-05T10:45:46.443Z,9.661437
2022-11-05T10:46:46.471Z,9.661514
2022-11-05T10:47:46.438Z,9.661489
2022-11-05T10:48:46.451Z,9.661519
2022-11-05T10:49:46.436Z,9.661519
2022-11-05T10:50:46.397Z,9.661532
2022-11-05T10:51:46.438Z,9.661115
2022-11-05T10:52:46.426Z,9.661345
2022-11-05T10:53:46.420Z,9.661606
2022-11-05T10:54:46.434Z,9.661592
2022-11-05T10:55:46.415Z,9.661474
2022-11-05T10:56:46.389Z,9.661484
2022-11-05T10:57:46.372Z,9.661465
2022-11-05T10:58:46.398Z,9.661473
2022-11-05T10:59:46.465Z,9.661552
2022-11-05T11:00:46.487Z,9.661549
2022-11-05T11:01:46.582Z,9.661621
2022-11-05T11:02:46.362Z,9.661566
2022-11-05T11:03:46.385Z,9.661489
2022-11-05T11:04:46.358Z,9.661545
2022-11-05T11:05:46.334Z,9.661564
2022-11-05T11:06:46.328Z,9.661614
2022-11-05T11:07:46.321Z,9.661647
2022-11-05T11:08:46.330Z,9.661631
2022-11-05T11:09:46.326Z,9.661673
2022-11-05T11:10:46.287Z,9.661624
2022-11-05T11:11:46.315Z,9.661434
2022-11-05T11:12:46.312Z,9.661625
2022-11-05T11:13:46.286Z,9.661619
2022-11-05T11:14:46.294Z,9.661461
2022-11-05T11:15:46.314Z,9.661585
2022-11-05T11:16:46.268Z,9.661574
2022-11-05T11:17:46.271Z,9.661495
2022-11-05T11:18:46.288Z,9.661404
2022-11-05T11:19:46.345Z,9.661505
2022-11-05T11:20:46.263Z,9.661391
2022-11-05T11:21:46.241Z,9.661524
2022-11-05T11:22:46.222Z,9.661551
2022-11-05T11:23:46.234Z,9.661560
2022-11-05T11:24:46.250Z,9.661777
2022-11-05T11:25:46.217Z,9.661503
2022-11-05T11:26:46.232Z,9.661651
2022-11-05T11:27:46.229Z,9.661568
2022-11-05T11:28:46.200Z,9.661533
2022-11-05T11:29:49.434Z,9.661647
2022-11-05T11:30:46.188Z,9.661543
2022-11-05T11:31:46.177Z,9.661621
2022-11-05T11:32:46.170Z,9.661633
2022-11-05T11:33:46.168Z,9.661713
2022-11-05T11:34:46.177Z,9.661590
2022-11-05T11:35:46.256Z,9.661590
2022-11-05T11:36:46.162Z,9.661523
2022-11-05T11:37:46.135Z,9.661667
2022-11-05T11:38:46.129Z,9.661664
2022-11-05T11:39:46.127Z,9.661630
2022-11-05T11:40:46.158Z,9.661608
2022-11-05T11:41:46.131Z,9.661659
2022-11-05T11:42:46.126Z,9.661919
2022-11-05T11:43:46.112Z,9.661780
2022-11-05T11:44:46.118Z,9.661567
2022-11-05T11:45:46.096Z,9.662078